Decoded Metar for KM25 ( in ) (IATA:) | Meteo·Mobile Aviation Weather
aviador You're here:

KM25 Decoded Metar

in
Report Time2019-07-16 00:35:00
UTC Time2019-07-16 00:46:25
Flight Rules vfr VFR
Wind150° at 06 kt
Visibility9999 m
Phenomena:N/A
Clouds:Scattered 030 Hf
Broken 037 Hf
Overcast 048 Hf
Expected CloudBase > 1,200 ft AGL from Temp-Dew spread
Ceiling3,700 ft
Temp25°C
Dew Point22°C (83% RH)
QNH1016 hPa
Raw Report
METAR KM25 160035Z AUTO 15006KT 7SM SCT030 BKN037 OVC048 25/22 A2999
RMK AO2 PWINO=

Extra information for KM25:More info

Social comments